createdAt,value
2019-06-07T07:09:57.299Z,101754.61
2019-06-07T07:12:26.725Z,101753.55
2019-06-07T07:14:59.064Z,101751.27
2019-06-07T07:17:47.886Z,101711.17
2019-06-07T07:20:07.267Z,101766.05
2019-06-07T07:22:39.341Z,101757.45
2019-06-07T07:25:11.617Z,101761.17
2019-06-07T07:27:44.594Z,101760.50
2019-06-07T07:30:37.376Z,101765.17
2019-06-07T07:32:59.037Z,101760.58
2019-06-07T07:35:27.428Z,101762.55
2019-06-07T07:37:59.942Z,101761.27
2019-06-07T07:40:57.015Z,101714.98
2019-06-07T07:43:06.893Z,101766.94
2019-06-07T07:45:39.329Z,101767.23
2019-06-07T07:48:17.815Z,101770.53
2019-06-07T07:50:49.106Z,101777.45
2019-06-07T07:53:20.175Z,101766.56
2019-06-07T07:55:54.958Z,101763.24
2019-06-07T07:58:26.789Z,101764.68
2019-06-07T08:01:09.781Z,101713.60
2019-06-07T08:03:32.467Z,101756.35
2019-06-07T08:06:04.616Z,101755.01
2019-06-07T08:08:36.605Z,101742.47
2019-06-07T08:11:08.637Z,101741.61
2019-06-07T08:13:40.668Z,101739.86
2019-06-07T08:16:16.484Z,101738.66
2019-06-07T08:18:51.022Z,101736.52
2019-06-07T08:21:26.256Z,101726.50
2019-06-07T08:23:58.276Z,101727.95
2019-06-07T08:26:29.990Z,101720.48
2019-06-07T08:29:03.093Z,101731.56
2019-06-07T08:31:35.361Z,101732.83
2019-06-07T08:34:07.506Z,101729.97
2019-06-07T08:36:42.342Z,101733.28
2019-06-07T08:39:16.366Z,101734.96
2019-06-07T08:41:59.313Z,101730.80
2019-06-07T08:44:25.397Z,101737.95
2019-06-07T08:47:15.511Z,101740.21
2019-06-07T08:49:29.395Z,101742.73
2019-06-07T08:52:10.069Z,101745.04
2019-06-07T08:54:35.712Z,101751.87
2019-06-07T08:57:20.417Z,101753.00
2019-06-07T08:59:41.519Z,101758.13
2019-06-07T09:02:23.416Z,101763.36
2019-06-07T09:04:49.434Z,101761.64
2019-06-07T09:07:22.125Z,101762.84
2019-06-07T09:10:01.838Z,101767.25
2019-06-07T09:12:28.284Z,101769.84
2019-06-07T09:15:15.011Z,101772.64
2019-06-07T09:17:34.334Z,101773.75
2019-06-07T09:20:30.548Z,101770.00
2019-06-07T09:22:43.503Z,101763.42
2019-06-07T09:25:20.865Z,101773.92
2019-06-07T09:27:51.020Z,101773.77
2019-06-07T09:30:41.323Z,101773.69
2019-06-07T09:33:14.436Z,101772.50
2019-06-07T09:35:46.909Z,101773.39
2019-06-07T09:38:25.383Z,101774.35
2019-06-07T09:40:52.958Z,101778.16
2019-06-07T09:44:00.935Z,101781.63
2019-06-07T09:46:01.016Z,101782.41
2019-06-07T09:49:09.974Z,101778.52
2019-06-07T09:51:18.568Z,101776.51
2019-06-07T09:53:40.358Z,101773.89
2019-06-07T09:56:12.486Z,101775.44
2019-06-07T09:58:52.021Z,101772.89
2019-06-07T10:01:18.423Z,101776.06
2019-06-07T10:03:50.572Z,101774.00
2019-06-07T10:06:22.856Z,101774.72
2019-06-07T10:11:28.842Z,101776.14
2019-06-07T10:14:01.007Z,101770.94
2019-06-07T10:16:46.141Z,101780.23
2019-06-07T10:19:07.535Z,101730.36
2019-06-07T10:21:39.536Z,101771.73
2019-06-07T10:24:11.695Z,101763.66
2019-06-07T10:26:43.982Z,101763.50
2019-06-07T10:29:16.905Z,101759.16
2019-06-07T10:31:49.256Z,101707.55
2019-06-07T10:34:21.304Z,101758.11
2019-06-07T10:36:53.292Z,101751.53
2019-06-07T10:39:25.607Z,101752.34
2019-06-07T10:41:57.619Z,101752.75
2019-06-07T10:44:29.980Z,101748.66
2019-06-07T10:47:02.033Z,101745.01
2019-06-07T10:49:34.226Z,101743.72
2019-06-07T10:52:08.493Z,101748.65
2019-06-07T10:54:41.115Z,101750.25
2019-06-07T10:57:16.055Z,101745.08
2019-06-07T10:59:46.908Z,101742.62
2019-06-07T11:02:19.178Z,101743.65
2019-06-07T11:04:52.432Z,101716.92
2019-06-07T11:07:31.593Z,101745.37
2019-06-07T11:10:09.407Z,101742.48
2019-06-07T11:12:39.297Z,101745.31
2019-06-07T11:15:12.990Z,101744.78
2019-06-07T11:17:45.391Z,101733.91
2019-06-07T11:20:18.616Z,101732.05
2019-06-07T11:22:51.051Z,101728.50
2019-06-07T11:25:23.157Z,101723.09
2019-06-07T11:27:55.110Z,101724.59
2019-06-07T11:30:27.240Z,101722.69
2019-06-07T11:32:59.363Z,101679.65
2019-06-07T11:35:31.683Z,101719.95
2019-06-07T11:38:03.870Z,101720.06
2019-06-07T11:40:36.244Z,101707.58
2019-06-07T11:43:10.672Z,101704.23
2019-06-07T11:45:42.796Z,101703.38
2019-06-07T11:48:15.502Z,101702.88
2019-06-07T11:50:47.876Z,101697.91
2019-06-07T11:53:20.154Z,101699.22
2019-06-07T11:55:53.054Z,101700.05
2019-06-07T11:58:25.135Z,101694.16
2019-06-07T12:00:57.445Z,101700.30
2019-06-07T12:03:29.524Z,101696.14
2019-06-07T12:06:01.593Z,101694.27
2019-06-07T12:08:33.655Z,101696.01
2019-06-07T12:11:05.745Z,101697.67
2019-06-07T12:13:38.095Z,101691.27
2019-06-07T12:16:11.220Z,101687.18
2019-06-07T12:18:43.602Z,101687.12
2019-06-07T12:21:15.921Z,101686.84
2019-06-07T12:23:47.997Z,101678.17
2019-06-07T12:26:20.679Z,101679.44
2019-06-07T12:28:52.769Z,101677.84
2019-06-07T12:31:24.840Z,101668.60
2019-06-07T12:33:56.810Z,101666.20
2019-06-07T12:36:29.197Z,101670.70
2019-06-07T12:39:01.465Z,101672.08
2019-06-07T12:41:33.907Z,101664.88
2019-06-07T12:44:07.222Z,101658.83
2019-06-07T12:46:39.693Z,101662.54
2019-06-07T12:49:12.966Z,101656.71
2019-06-07T12:51:45.904Z,101650.09
2019-06-07T12:54:19.588Z,101641.83
2019-06-07T12:56:52.434Z,101648.02
2019-06-07T12:59:24.935Z,101598.52
2019-06-07T13:02:02.207Z,101630.09
2019-06-07T13:04:31.005Z,101625.70
2019-06-07T13:07:03.098Z,101623.23
2019-06-07T13:09:36.186Z,101620.02
2019-06-07T13:12:08.642Z,101614.00
2019-06-07T13:14:41.020Z,101606.52
2019-06-07T13:17:13.219Z,101604.73
2019-06-07T13:19:45.895Z,101599.03
2019-06-07T13:22:18.448Z,101593.00
2019-06-07T13:24:50.636Z,101590.16
2019-06-07T13:27:22.696Z,101584.78
2019-06-07T13:29:54.780Z,101584.28
2019-06-07T13:32:28.148Z,101586.17
2019-06-07T13:35:00.291Z,101585.06
2019-06-07T13:37:32.263Z,101578.46
2019-06-07T13:40:08.773Z,101581.11
2019-06-07T13:42:40.805Z,101577.41
2019-06-07T13:45:13.304Z,101578.19
2019-06-07T13:47:45.248Z,101573.53
2019-06-07T13:50:21.950Z,101560.55
2019-06-07T13:52:56.440Z,101554.65
2019-06-07T13:55:28.517Z,101560.95
2019-06-07T13:58:00.791Z,101555.41
2019-06-07T14:00:33.037Z,101555.66
2019-06-07T14:03:06.155Z,101551.41
2019-06-07T14:05:38.194Z,101553.70
2019-06-07T14:08:10.196Z,101553.25
2019-06-07T14:10:42.142Z,101506.31
2019-06-07T14:13:14.146Z,101549.14
2019-06-07T14:15:46.175Z,101527.00
2019-06-07T14:18:18.434Z,101542.11
2019-06-07T14:20:50.510Z,101536.02
2019-06-07T14:23:41.324Z,101537.83
2019-06-07T14:25:56.601Z,101541.17
2019-06-07T14:28:32.162Z,101529.14
2019-06-07T14:31:02.342Z,101525.20
2019-06-07T14:33:34.567Z,101520.69
2019-06-07T14:36:06.626Z,101518.40
2019-06-07T14:38:38.661Z,101517.81
2019-06-07T14:41:10.717Z,101516.03
2019-06-07T14:43:42.964Z,101510.18
2019-06-07T14:46:15.466Z,101509.83
2019-06-07T14:48:47.416Z,101507.58
2019-06-07T14:51:19.383Z,101508.30
2019-06-07T14:53:51.544Z,101509.36
2019-06-07T14:56:24.814Z,101512.63
2019-06-07T14:58:56.813Z,101511.01
2019-06-07T15:01:30.569Z,101507.28
2019-06-07T15:04:03.208Z,101501.73
2019-06-07T15:06:35.260Z,101502.76
2019-06-07T15:09:08.475Z,101494.87
2019-06-07T15:11:41.339Z,101490.17
2019-06-07T15:14:16.746Z,101491.23
2019-06-07T15:16:47.266Z,101489.16
2019-06-07T15:19:19.284Z,101483.52
2019-06-07T15:21:51.264Z,101486.45
2019-06-07T15:24:23.459Z,101484.50
2019-06-07T15:29:39.160Z,101477.70
2019-06-07T15:32:15.430Z,101482.98
2019-06-07T15:34:51.504Z,101482.28
2019-06-07T15:37:23.720Z,101483.74
2019-06-07T15:39:56.109Z,101480.92
2019-06-07T15:42:42.702Z,101474.28
2019-06-07T15:45:02.303Z,101473.70
2019-06-07T15:47:35.882Z,101461.92
2019-06-07T15:50:11.551Z,101461.69
2019-06-07T15:52:44.947Z,101464.17
2019-06-07T15:55:17.503Z,101464.75
2019-06-07T15:57:49.816Z,101453.84
2019-06-07T16:00:22.269Z,101449.80
2019-06-07T16:02:54.437Z,101448.02
2019-06-07T16:05:26.793Z,101450.71
2019-06-07T16:07:58.827Z,101447.03
2019-06-07T16:10:30.907Z,101443.89
2019-06-07T16:13:03.214Z,101446.98
2019-06-07T16:15:35.265Z,101439.34
2019-06-07T16:18:07.361Z,101439.95
2019-06-07T16:20:39.668Z,101440.38
2019-06-07T16:23:12.393Z,101393.70
2019-06-07T16:25:45.146Z,101430.66
2019-06-07T16:28:17.156Z,101426.37
2019-06-07T16:30:49.583Z,101425.59
2019-06-07T16:33:21.641Z,101423.63
2019-06-07T16:35:54.490Z,101425.28
2019-06-07T16:38:26.687Z,101418.52
2019-06-07T16:40:58.840Z,101423.47
2019-06-07T16:43:30.796Z,101418.88
2019-06-07T16:46:02.834Z,101423.28
2019-06-07T16:48:34.783Z,101418.19
2019-06-07T16:51:06.807Z,101420.51
2019-06-07T16:53:38.753Z,101413.23
2019-06-07T16:56:10.797Z,101409.77
2019-06-07T16:58:42.757Z,101409.20
2019-06-07T17:01:14.824Z,101407.36
2019-06-07T17:03:47.607Z,101400.16
2019-06-07T17:06:20.129Z,101398.08
2019-06-07T17:08:52.410Z,101390.42
2019-06-07T17:11:24.699Z,101390.61
2019-06-07T17:13:56.996Z,101378.73
2019-06-07T17:16:29.362Z,101334.60
2019-06-07T17:19:01.588Z,101376.46
2019-06-07T17:21:33.940Z,101368.41
2019-06-07T17:24:06.138Z,101361.92
2019-06-07T17:26:39.384Z,101361.83
2019-06-07T17:29:11.562Z,101361.97
2019-06-07T17:31:44.728Z,101359.36
2019-06-07T17:34:17.156Z,101356.80
2019-06-07T17:36:50.574Z,101309.50
2019-06-07T17:39:22.664Z,101350.95
2019-06-07T17:42:02.098Z,101350.73
2019-06-07T17:44:28.614Z,101348.38
2019-06-07T17:47:00.618Z,101346.05
2019-06-07T17:49:32.579Z,101337.92
2019-06-07T17:52:05.030Z,101342.36
2019-06-07T17:54:37.305Z,101339.80
2019-06-07T17:57:09.263Z,101346.22
2019-06-07T17:59:42.384Z,101346.31
2019-06-07T18:02:15.741Z,101338.77
2019-06-07T18:04:49.206Z,101340.64
2019-06-07T18:07:22.642Z,101337.72
2019-06-07T18:09:56.236Z,101336.62
2019-06-07T18:12:28.302Z,101337.35
2019-06-07T18:15:00.339Z,101341.92
2019-06-07T18:17:34.839Z,101341.30
2019-06-07T18:20:08.427Z,101337.70
2019-06-07T18:22:41.478Z,101340.81
2019-06-07T18:25:14.148Z,101338.69
2019-06-07T18:27:48.457Z,101335.33
2019-06-07T18:30:20.700Z,101330.33
2019-06-07T18:32:53.020Z,101326.55
2019-06-07T18:35:25.164Z,101321.55
2019-06-07T18:37:57.410Z,101324.05
2019-06-07T18:40:29.427Z,101322.14
2019-06-07T18:43:04.168Z,101322.33
2019-06-07T18:45:36.264Z,101319.38
2019-06-07T18:48:08.268Z,101316.73
2019-06-07T18:50:40.371Z,101314.98
2019-06-07T18:53:12.325Z,101283.97
2019-06-07T18:55:44.694Z,101331.61
2019-06-07T18:58:16.984Z,101333.21
2019-06-07T19:00:49.885Z,101332.41
2019-06-07T19:03:22.128Z,101326.45
2019-06-07T19:05:54.454Z,101299.42
2019-06-07T19:08:26.736Z,101330.09
2019-06-07T19:10:59.136Z,101334.92
2019-06-07T19:13:31.095Z,101339.08
2019-06-07T19:16:04.565Z,101332.74
2019-06-07T19:18:38.901Z,101341.75
2019-06-07T19:21:11.342Z,101336.66
2019-06-07T19:23:43.384Z,101343.66
2019-06-07T19:26:15.416Z,101345.84
2019-06-07T19:28:47.759Z,101299.34
2019-06-07T19:31:20.137Z,101352.82
2019-06-07T19:33:53.087Z,101355.77
2019-06-07T19:36:25.290Z,101356.73
2019-06-07T19:38:57.957Z,101357.84
2019-06-07T19:41:29.960Z,101362.47
2019-06-07T19:44:02.473Z,101363.55
2019-06-07T19:46:34.525Z,101359.37
2019-06-07T19:49:06.679Z,101358.52
2019-06-07T19:51:38.911Z,101359.00
2019-06-07T19:54:10.960Z,101360.64
2019-06-07T19:56:43.046Z,101350.72
2019-06-07T19:59:15.007Z,101351.66
2019-06-07T20:01:47.045Z,101349.98
2019-06-07T20:04:18.993Z,101351.69
2019-06-07T20:06:51.166Z,101347.64
2019-06-07T20:09:23.162Z,101341.94
2019-06-07T20:11:56.513Z,101340.91
2019-06-07T20:14:28.796Z,101340.92
2019-06-07T20:17:01.439Z,101340.55
2019-06-07T20:19:33.474Z,101342.60
2019-06-07T20:22:10.193Z,101347.81
2019-06-07T20:24:42.876Z,101355.55
2019-06-07T20:27:14.991Z,101357.22
2019-06-07T20:29:47.081Z,101359.81
2019-06-07T20:32:19.042Z,101361.89
2019-06-07T20:34:51.055Z,101365.76
2019-06-07T20:37:23.052Z,101375.64
2019-06-07T20:39:55.012Z,101375.84
2019-06-07T20:42:27.312Z,101368.17
2019-06-07T20:44:59.600Z,101373.30
2019-06-07T20:47:32.034Z,101372.42
2019-06-07T20:50:06.511Z,101375.44
2019-06-07T20:52:39.230Z,101377.89
2019-06-07T20:55:11.634Z,101374.30
2019-06-07T20:57:43.600Z,101381.84
2019-06-07T21:00:21.726Z,101382.72
2019-06-07T21:02:50.118Z,101386.45
2019-06-07T21:05:22.558Z,101381.45
2019-06-07T21:07:54.613Z,101385.97
2019-06-07T21:10:26.978Z,101386.75
2019-06-07T21:12:59.701Z,101386.30
2019-06-07T21:15:31.691Z,101386.14
2019-06-07T21:18:09.042Z,101392.78
2019-06-07T21:20:37.716Z,101397.76
2019-06-07T21:23:11.876Z,101411.89
2019-06-07T21:25:43.767Z,101417.47
2019-06-07T21:28:16.043Z,101417.78
2019-06-07T21:30:48.172Z,101416.42
2019-06-07T21:33:20.146Z,101407.38
2019-06-07T21:35:52.678Z,101405.95
2019-06-07T21:38:25.149Z,101416.28
2019-06-07T21:40:57.495Z,101415.09
2019-06-07T21:43:29.458Z,101420.33
2019-06-07T21:46:05.434Z,101418.98
2019-06-07T21:48:35.244Z,101414.48
2019-06-07T21:51:08.284Z,101418.18
2019-06-07T21:53:40.510Z,101403.55
2019-06-07T21:56:13.375Z,101405.64
2019-06-07T21:58:45.990Z,101401.32
2019-06-07T22:01:20.988Z,101399.97
2019-06-07T22:03:53.003Z,101401.93
2019-06-07T22:06:25.083Z,101394.71
2019-06-07T22:08:57.149Z,101396.14
2019-06-07T22:11:29.221Z,101385.80
2019-06-07T22:14:01.573Z,101392.29
2019-06-07T22:16:33.518Z,101382.67
2019-06-07T22:19:06.521Z,101390.09
2019-06-07T22:21:38.613Z,101388.34
2019-06-07T22:24:11.031Z,101337.20
2019-06-07T22:26:43.081Z,101385.66
2019-06-07T22:29:15.118Z,101390.89
2019-06-07T22:31:47.128Z,101388.56
2019-06-07T22:34:19.261Z,101383.74
2019-06-07T22:36:51.537Z,101375.33
2019-06-07T22:39:23.596Z,101328.30
2019-06-07T22:41:55.551Z,101364.84
2019-06-07T22:44:27.568Z,101361.15
2019-06-07T22:46:59.601Z,101356.13
2019-06-07T22:49:31.624Z,101356.27
2019-06-07T22:52:08.610Z,101304.33
2019-06-07T22:54:37.806Z,101356.70
2019-06-07T22:57:18.372Z,101340.60
2019-06-07T22:59:50.809Z,101337.02
2019-06-07T23:02:22.832Z,101327.84
2019-06-07T23:04:54.880Z,101325.84
2019-06-07T23:07:26.846Z,101327.41
2019-06-07T23:09:59.159Z,101332.27
2019-06-07T23:12:31.186Z,101329.88
2019-06-07T23:15:03.251Z,101335.67
2019-06-07T23:17:35.244Z,101340.33
2019-06-07T23:20:09.675Z,101337.91
2019-06-07T23:22:41.737Z,101347.22
2019-06-07T23:25:19.920Z,101340.53
2019-06-07T23:27:49.037Z,101337.07
2019-06-07T23:30:21.769Z,101343.89
2019-06-07T23:32:53.838Z,101342.56
2019-06-07T23:35:25.859Z,101338.41
2019-06-07T23:37:57.844Z,101342.06
2019-06-07T23:40:29.811Z,101298.04
2019-06-07T23:43:01.806Z,101350.34
2019-06-07T23:45:33.924Z,101356.72
2019-06-07T23:48:05.886Z,101356.33
2019-06-07T23:50:37.938Z,101358.75
2019-06-07T23:53:11.608Z,101356.99
2019-06-07T23:55:43.740Z,101354.27
2019-06-07T23:58:15.974Z,101354.57
